Flight Track Log - Related Links

Times and Time Zones

All times are in EDT time to prevent confusion due to time zone crossing. See the ERR736 flight status page for this flight to view local times or setup timezone preferences in your user account.

Time Position Orientation Groundspeed Altitude Reporting Facility
EDT Latitude Longitude Course Direction KTS MPH feet Rate Location/Type
Wed 06:23:13 PM 64.8667 -147.7167 269° West 170 196 4,100  Level Anchorage Center
Wed 06:24:13 PM 64.9000 -147.7667 328° Northwest 180 207 5,900 1,750 Climbing Anchorage Center
Wed 06:25:13 PM 64.9167 -147.8833 289° West 190 219 7,600 1,736 Climbing Anchorage Center
Wed 06:26:14 PM 64.9000 -147.9833 249° West 160 184 9,400 1,835 Climbing Anchorage Center
Wed 06:27:00 PM 64.8320 -148.7514 270° West  Level Estimated
Wed 06:27:14 PM 64.8833 -148.0833 249° West 160 184 11,300  Level Anchorage Center
Wed 06:28:00 PM 64.8305 -148.9008 269° West  Level FlightAware Approximate
Wed 06:28:14 PM 64.8667 -148.1833 249° West 160 184 13,000  Level Anchorage Center
Wed 06:29:14 PM 64.8500 -148.2667 245° Southwest 170 196 14,400 1,636 Climbing Anchorage Center
Wed 06:30:15 PM 64.8333 -148.3833 251° West 170 196 16,300 1,587 Climbing Anchorage Center
Wed 06:31:15 PM 64.8167 -148.4833 249° West 190 219 17,600 1,400 Climbing Anchorage Center
Wed 06:32:15 PM 64.8000 -148.6000 251° West 190 219 19,100 1,388 Climbing Anchorage Center
Wed 06:33:16 PM 64.8000 -148.7333 270° West 190 219 20,400 1,240 Climbing Anchorage Center
Wed 06:34:16 PM 64.8167 -148.8500 289° West 190 219 21,600 1,000 Climbing Anchorage Center
Wed 06:35:16 PM 64.8167 -148.9833 270° West 190 219 22,400 843 Climbing Anchorage Center
Wed 06:36:17 PM 64.8167 -149.1167 270° West 200 230 23,300 793 Climbing Anchorage Center
Wed 06:37:17 PM 64.8167 -149.2333 270° West 200 230 24,000 350 Climbing Anchorage Center
Wed 06:38:17 PM 64.8167 -149.3667 270° West 210 242 24,000  Level Anchorage Center
Wed 06:39:18 PM 64.8167 -149.5167 270° West 220 253 24,000  Level Anchorage Center
Wed 06:41:19 PM 64.8167 -149.8167 270° West 230 265 24,000  Level Anchorage Center
Wed 06:42:19 PM 64.8167 -149.9500 270° West 230 265 24,000  Level Anchorage Center
Wed 06:43:19 PM 64.8333 -150.1000 285° West 220 253 24,000  Level Anchorage Center
Wed 06:44:20 PM 64.8333 -150.2500 270° West 230 265 24,000  Level Anchorage Center
Wed 06:45:20 PM 64.8333 -150.4000 270° West 230 265 24,000  Level Anchorage Center
Wed 06:46:20 PM 64.8333 -150.5500 270° West 220 253 24,000  Level Anchorage Center
Wed 06:47:21 PM 64.8333 -150.7000 270° West 230 265 24,000  Level Anchorage Center
Wed 06:48:21 PM 64.8333 -150.8333 270° West 230 265 24,000  Level Anchorage Center
Wed 06:49:21 PM 64.8333 -150.9833 270° West 230 265 24,000  Level Anchorage Center
Wed 06:50:22 PM 64.8333 -151.1667 270° West 220 253 24,000  Level Anchorage Center
Wed 06:51:22 PM 64.8333 -151.3167 270° West 230 265 24,000  Level Anchorage Center
Wed 06:52:22 PM 64.8333 -151.4667 270° West 240 276 24,000  Level Anchorage Center
Wed 06:53:23 PM 64.8333 -151.6333 270° West 230 265 24,000  Level Anchorage Center
Wed 06:54:23 PM 64.8333 -151.7833 270° West 240 276 24,000  Level Anchorage Center
Wed 06:55:23 PM 64.8333 -151.9500 270° West 250 288 24,000  Level Anchorage Center
Wed 06:56:23 PM 64.8333 -152.0667 270° West 220 253 24,000  Level Anchorage Center
Wed 06:57:24 PM 64.8333 -152.2167 270° West 240 276 24,000  Level Anchorage Center
Wed 06:58:24 PM 64.8333 -152.3833 270° West 240 276 24,000  Level Anchorage Center
Wed 06:59:24 PM 64.8167 -152.5333 255° West 250 288 24,000  Level Anchorage Center
Wed 07:00:25 PM 64.8167 -152.7333 270° West 240 276 24,000  Level Anchorage Center
Wed 07:01:25 PM 64.8167 -152.8833 270° West 240 276 24,000  Level Anchorage Center
Wed 07:02:25 PM 64.8167 -153.0500 270° West 250 288 24,000  Level Anchorage Center
Wed 07:03:26 PM 64.8167 -153.2167 270° West 250 288 24,000  Level Anchorage Center
Wed 07:04:26 PM 64.8167 -153.3833 270° West 250 288 24,000  Level Anchorage Center
Wed 07:05:27 PM 64.8167 -153.5500 270° West 260 299 24,000 50 Level Anchorage Center
Wed 07:06:27 PM 64.8167 -153.7167 270° West 260 299 24,100 50 Climbing Anchorage Center
Wed 07:07:27 PM 64.8000 -153.8833 257° West 260 299 24,100  Level Anchorage Center
Wed 07:08:28 PM 64.8000 -154.0500 270° West 260 299 24,100  Level Anchorage Center
Wed 07:09:28 PM 64.8000 -154.2167 270° West 260 299 24,100  Level Anchorage Center
Wed 07:10:28 PM 64.8000 -154.3833 270° West 260 299 24,100  Level Anchorage Center
Wed 07:11:29 PM 64.8000 -154.5500 270° West 250 288 24,100  Level Anchorage Center
Wed 07:12:29 PM 64.8000 -154.7167 270° West 260 299 24,100  Level Anchorage Center
Wed 07:13:29 PM 64.8000 -154.8833 270° West 250 288 24,100 -198 Level Anchorage Center
Wed 07:14:30 PM 64.7833 -155.0333 255° West 250 288 23,700 -843 Descending Anchorage Center
Wed 07:15:30 PM 64.7833 -155.2167 270° West 250 288 22,400 -1,250 Descending Anchorage Center
Wed 07:16:30 PM 64.7833 -155.3833 270° West 250 288 21,200 -1,293 Descending Anchorage Center
Wed 07:18:31 PM 64.7833 -155.7333 270° West 300 345 18,500 -1,459 Descending Anchorage Center
Wed 07:19:31 PM 64.7667 -155.8667 254° West 220 253 16,800 -1,500 Descending Anchorage Center
Wed 07:20:31 PM 64.7667 -156.0167 270° West 230 265 15,500 -1,289 Descending Anchorage Center
Wed 07:21:32 PM 64.7667 -156.1833 270° West 250 288 14,200 -1,289 Descending Anchorage Center
Wed 07:22:32 PM 64.7667 -156.3500 270° West 260 299 12,900 -1,300 Descending Anchorage Center
Wed 07:23:32 PM 64.7500 -156.5000 255° West 250 288 11,600 -1,339 Descending Anchorage Center
Wed 07:24:33 PM 64.7500 -156.6667 270° West 240 276 10,200 -1,388 Descending Anchorage Center
Wed 07:25:33 PM 64.7500 -156.8167 270° West 230 265 8,800 -1,400 Descending Anchorage Center
Wed 07:26:33 PM 64.7500 -156.9333 270° West 220 253 7,400 -1,388 Descending Anchorage Center
Wed 07:27:34 PM 64.7333 -157.1167 258° West 230 265 6,000 -1,339 Descending Anchorage Center
Wed 07:28:34 PM 64.7333 -157.2333 270° West 240 276 4,700 -942 Descending Anchorage Center
Wed 07:29:35 PM 64.7333 -157.4000 270° West 200 230 4,100 -347 Descending Anchorage Center
Wed 07:30:35 PM 64.7167 -157.5333 254° West 200 230 4,000 -50 Descending Anchorage Center
Wed 07:31:35 PM 64.6833 -157.6167 227° Southwest 190 219 4,000  Level Anchorage Center
Wed 07:32:36 PM 64.7000 -157.6833 300° West 210 242 4,000  Level Anchorage Center
Wed 07:33:36 PM 64.7333 -157.6000 47° Northeast 160 184 4,000 -150 Level Anchorage Center
Wed 07:34:36 PM 64.7333 -157.4500 90° East 210 242 3,700 -595 Descending Anchorage Center
Wed 07:35:37 PM 64.7333 -157.3167 90° East 190 219 2,800 -885 Descending Anchorage Center
Wed 07:37:00 PM 64.7349 -157.1247 90° East  Level Estimated

Login

Don't have an account? Register now (free) for customized features, flight alerts, and more!